Snow/Ice From: 17-12-2017 10:00 Until: 18-12-2017 06:00 warning for: Snow/Ice Level: Yellow info button

Although rather usual in this region, locally or potentially dangerous phenomena are expected. (such as local winds, summer thunderstorms, rising streams or high waves) Be aware and pay attention to the latest weather updates, especially if you carry out activities exposed to weather or close to a stream or shoreline. 


Meteo18 Weather Cam more information Meteo18 Weather Cam


Thunder radar more information blitzortung!


warning for Snow/Ice more information rain snow radar


Visit our other weather sites:

Template documentation
and downloads

And another site



Weather Underground History page Text

Daily Summary for July 27, 2016 Units:  Metric    English   Both
« Previous Day
Next Day »
Daily Weekly Monthly Yearly Custom
  High: Low: Average:
Temperature: 25.3 °C 14.6 °C 20.3 °C
Dew Point: 14.8 °C 12.1 °C 13.5 °C
Humidity: 86 % 49 % 67 %
Wind Speed: 16.1 km/h 0.0 km/h 3.2 km/h
Wind Gust: 22.5 km/h - -
Wind:- - WNW
Pressure: 1020.2 hPa 1018.2 hPa -
Precipitation: 0.0 mm    
Historical Graphs
 
 
Tabular Data for July 27, 2016
Time Temperature Dew Point Pressure Wind Wind Speed Wind Gust Humidity Rainfall Rate (Hourly)
00:02 18.0 °C 13.1 °C 1020.2 hPa WNW 1.6 km/h 3.2 km/h 73 % 0.0 mm
00:07 17.9 °C 13.0 °C 1020.2 hPa West 1.6 km/h 3.2 km/h 73 % 0.0 mm
00:12 17.7 °C 13.0 °C 1020.2 hPa Calm   3.2 km/h 74 % 0.0 mm
00:17 17.5 °C 12.8 °C 1020.2 hPa Calm   3.2 km/h 74 % 0.0 mm
00:27 17.1 °C 12.8 °C 1020.2 hPa WNW 1.6 km/h 3.2 km/h 76 % 0.0 mm
00:32 17.1 °C 12.8 °C 1020.2 hPa Calm   1.6 km/h 76 % 0.0 mm
00:37 16.9 °C 12.6 °C 1020.2 hPa Calm   1.6 km/h 76 % 0.0 mm
00:42 16.8 °C 12.9 °C 1020.2 hPa WNW 1.6 km/h 1.6 km/h 78 % 0.0 mm
00:47 16.6 °C 12.7 °C 1020.2 hPa Calm   1.6 km/h 78 % 0.0 mm
00:52 16.4 °C 12.7 °C 1020.2 hPa North 3.2 km/h 3.2 km/h 79 % 0.0 mm
00:57 16.7 °C 12.8 °C 1020.2 hPa NW 4.8 km/h 6.4 km/h 78 % 0.0 mm
01:02 17.0 °C 12.7 °C 1020.2 hPa NW 3.2 km/h 6.4 km/h 76 % 0.0 mm
01:07 17.2 °C 12.7 °C 1020.2 hPa Calm   6.4 km/h 75 % 0.0 mm
01:12 17.3 °C 12.6 °C 1020.2 hPa NNW 1.6 km/h 6.4 km/h 74 % 0.0 mm
01:22 17.3 °C 12.6 °C 1020.2 hPa NNW 1.6 km/h 6.4 km/h 74 % 0.0 mm
01:27 17.3 °C 12.6 °C 1020.2 hPa NNW 1.6 km/h 4.8 km/h 74 % 0.0 mm
01:32 17.2 °C 12.5 °C 1020.2 hPa NW 3.2 km/h 4.8 km/h 74 % 0.0 mm
01:37 17.1 °C 12.6 °C 1020.2 hPa NW 3.2 km/h 4.8 km/h 75 % 0.0 mm
01:42 17.1 °C 12.6 °C 1019.9 hPa NW 1.6 km/h 4.8 km/h 75 % 0.0 mm
01:47 17.1 °C 12.6 °C 1019.9 hPa NW 1.6 km/h 4.8 km/h 75 % 0.0 mm
01:52 16.9 °C 12.4 °C 1019.9 hPa Calm   4.8 km/h 75 % 0.0 mm
01:57 16.9 °C 12.4 °C 1019.9 hPa NW 1.6 km/h 4.8 km/h 75 % 0.0 mm
02:02 16.8 °C 12.3 °C 1020.2 hPa Calm   4.8 km/h 75 % 0.0 mm
02:07 16.6 °C 12.4 °C 1020.2 hPa Calm   4.8 km/h 76 % 0.0 mm
02:12 16.4 °C 12.4 °C 1020.2 hPa Calm   3.2 km/h 77 % 0.0 mm
02:17 16.4 °C 12.4 °C 1019.9 hPa NW 1.6 km/h 1.6 km/h 77 % 0.0 mm
02:22 16.3 °C 12.3 °C 1019.9 hPa NW 1.6 km/h 1.6 km/h 77 % 0.0 mm
02:32 16.0 °C 12.2 °C 1019.9 hPa NW 3.2 km/h 3.2 km/h 78 % 0.0 mm
02:37 16.0 °C 12.2 °C 1020.2 hPa WNW 1.6 km/h 4.8 km/h 78 % 0.0 mm
02:42 15.8 °C 12.2 °C 1020.2 hPa WNW 1.6 km/h 4.8 km/h 79 % 0.0 mm
02:47 15.9 °C 12.3 °C 1020.2 hPa WNW 1.6 km/h 4.8 km/h 79 % 0.0 mm
02:57 16.1 °C 12.5 °C 1019.9 hPa West 1.6 km/h 6.4 km/h 79 % 0.0 mm
03:02 16.2 °C 12.6 °C 1019.9 hPa NW 3.2 km/h 6.4 km/h 79 % 0.0 mm
03:07 16.3 °C 12.7 °C 1019.9 hPa NW 3.2 km/h 6.4 km/h 79 % 0.0 mm
03:12 16.3 °C 12.7 °C 1019.9 hPa Calm   6.4 km/h 79 % 0.0 mm
03:17 16.2 °C 12.6 °C 1019.9 hPa WNW 1.6 km/h 6.4 km/h 79 % 0.0 mm
03:22 16.1 °C 12.5 °C 1019.9 hPa Calm   6.4 km/h 79 % 0.0 mm
03:32 15.8 °C 12.4 °C 1019.9 hPa WNW 1.6 km/h 4.8 km/h 80 % 0.0 mm
03:37 15.7 °C 12.3 °C 1019.9 hPa WNW 1.6 km/h 3.2 km/h 80 % 0.0 mm
03:42 15.7 °C 12.4 °C 1019.9 hPa WNW 1.6 km/h 3.2 km/h 81 % 0.0 mm
03:47 15.7 °C 12.4 °C 1019.5 hPa WNW 1.6 km/h 3.2 km/h 81 % 0.0 mm
03:52 15.7 °C 12.4 °C 1019.5 hPa WNW 1.6 km/h 3.2 km/h 81 % 0.0 mm
03:57 15.7 °C 12.4 °C 1019.5 hPa Calm   3.2 km/h 81 % 0.0 mm
04:02 15.7 °C 12.4 °C 1019.5 hPa NW 1.6 km/h 3.2 km/h 81 % 0.0 mm
04:07 15.7 °C 12.4 °C 1019.5 hPa West 3.2 km/h 3.2 km/h 81 % 0.0 mm
04:12 15.8 °C 12.5 °C 1019.5 hPa NW 4.8 km/h 4.8 km/h 81 % 0.0 mm
04:17 15.9 °C 12.6 °C 1019.5 hPa NW 3.2 km/h 4.8 km/h 81 % 0.0 mm
04:22 15.9 °C 12.6 °C 1019.5 hPa WNW 1.6 km/h 4.8 km/h 81 % 0.0 mm
04:27 15.9 °C 12.6 °C 1019.5 hPa WNW 1.6 km/h 6.4 km/h 81 % 0.0 mm
04:32 15.9 °C 12.6 °C 1019.5 hPa NW 3.2 km/h 6.4 km/h 81 % 0.0 mm
04:37 15.8 °C 12.5 °C 1019.9 hPa Calm   8.0 km/h 81 % 0.0 mm
04:42 15.6 °C 12.5 °C 1019.9 hPa NNW 1.6 km/h 8.0 km/h 82 % 0.0 mm
04:47 15.4 °C 12.5 °C 1019.5 hPa North 3.2 km/h 8.0 km/h 83 % 0.0 mm
04:52 15.2 °C 12.3 °C 1019.5 hPa NNW 1.6 km/h 8.0 km/h 83 % 0.0 mm
05:02 15.0 °C 12.3 °C 1019.5 hPa NW 3.2 km/h 6.4 km/h 84 % 0.0 mm
05:07 15.0 °C 12.5 °C 1019.5 hPa Calm   4.8 km/h 85 % 0.0 mm
05:12 15.0 °C 12.5 °C 1019.5 hPa Calm   4.8 km/h 85 % 0.0 mm
05:22 14.9 °C 12.4 °C 1019.5 hPa NW 1.6 km/h 4.8 km/h 85 % 0.0 mm
05:32 14.9 °C 12.4 °C 1019.5 hPa Calm   4.8 km/h 85 % 0.0 mm
05:42 14.9 °C 12.4 °C 1019.2 hPa Calm   6.4 km/h 85 % 0.0 mm
05:57 14.9 °C 12.4 °C 1019.5 hPa Calm   6.4 km/h 85 % 0.0 mm
06:02 14.8 °C 12.3 °C 1019.5 hPa NNW 1.6 km/h 6.4 km/h 85 % 0.0 mm
06:07 14.8 °C 12.3 °C 1019.5 hPa NNW 1.6 km/h 6.4 km/h 85 % 0.0 mm
06:17 14.8 °C 12.3 °C 1019.2 hPa Calm   6.4 km/h 85 % 0.0 mm
06:22 14.7 °C 12.2 °C 1019.2 hPa NNW 1.6 km/h 6.4 km/h 85 % 0.0 mm
06:32 14.6 °C 12.1 °C 1019.2 hPa NNW 1.6 km/h 4.8 km/h 85 % 0.0 mm
06:42 14.6 °C 12.3 °C 1019.2 hPa NW 1.6 km/h 3.2 km/h 86 % 0.0 mm
06:52 14.8 °C 12.3 °C 1019.2 hPa Calm   3.2 km/h 85 % 0.0 mm
06:57 14.9 °C 12.4 °C 1019.2 hPa Calm   3.2 km/h 85 % 0.0 mm
07:02 15.0 °C 12.5 °C 1019.2 hPa Calm   3.2 km/h 85 % 0.0 mm
07:12 15.1 °C 12.6 °C 1019.2 hPa Calm   1.6 km/h 85 % 0.0 mm
07:17 15.2 °C 12.7 °C 1019.2 hPa Calm   1.6 km/h 85 % 0.0 mm
07:27 15.4 °C 12.7 °C 1019.2 hPa Calm   1.6 km/h 84 % 0.0 mm
07:32 15.6 °C 12.9 °C 1019.5 hPa Calm   1.6 km/h 84 % 0.0 mm
07:42 16.0 °C 13.1 °C 1019.2 hPa Calm   3.2 km/h 83 % 0.0 mm
07:52 16.6 °C 13.1 °C 1019.5 hPa NNW 1.6 km/h 3.2 km/h 80 % 0.0 mm
08:02 16.5 °C 13.2 °C 1019.5 hPa NW 1.6 km/h 3.2 km/h 81 % 0.0 mm
08:12 16.6 °C 13.3 °C 1019.5 hPa Calm   3.2 km/h 81 % 0.0 mm
08:22 16.7 °C 13.4 °C 1019.9 hPa Calm   1.6 km/h 81 % 0.0 mm
08:32 16.7 °C 13.4 °C 1019.9 hPa Calm   1.6 km/h 81 % 0.0 mm
08:42 16.8 °C 13.5 °C 1019.9 hPa Calm   1.6 km/h 81 % 0.0 mm
08:47 16.9 °C 13.4 °C 1019.9 hPa Calm   1.6 km/h 80 % 0.0 mm
08:52 17.1 °C 13.6 °C 1019.9 hPa Calm   1.6 km/h 80 % 0.0 mm
09:02 17.7 °C 13.8 °C 1019.9 hPa Calm   1.6 km/h 78 % 0.0 mm
09:12 17.7 °C 13.6 °C 1019.9 hPa Calm     77 % 0.0 mm
09:17 17.9 °C 13.8 °C 1019.9 hPa Calm     77 % 0.0 mm
09:22 18.2 °C 13.9 °C 1019.9 hPa Calm     76 % 0.0 mm
09:32 18.3 °C 13.8 °C 1019.9 hPa Calm   3.2 km/h 75 % 0.0 mm
09:42 18.5 °C 14.0 °C 1019.9 hPa Calm   3.2 km/h 75 % 0.0 mm
09:52 18.6 °C 14.1 °C 1019.9 hPa Calm   3.2 km/h 75 % 0.0 mm
10:02 18.6 °C 14.1 °C 1019.9 hPa West 1.6 km/h   75 % 0.0 mm
10:07 18.4 °C 13.9 °C 1019.9 hPa Calm   3.2 km/h 75 % 0.0 mm
10:12 18.6 °C 14.1 °C 1019.9 hPa SSW 1.6 km/h 3.2 km/h 75 % 0.0 mm
10:17 18.8 °C 14.1 °C 1019.9 hPa SE 1.6 km/h 3.2 km/h 74 % 0.0 mm
10:22 18.9 °C 14.0 °C 1019.9 hPa Calm   3.2 km/h 73 % 0.0 mm
10:32 19.2 °C 14.2 °C 1019.9 hPa Calm   3.2 km/h 73 % 0.0 mm
10:42 19.3 °C 13.9 °C 1019.9 hPa SE 1.6 km/h 1.6 km/h 71 % 0.0 mm
10:52 19.9 °C 14.5 °C 1019.9 hPa SW 1.6 km/h 3.2 km/h 71 % 0.0 mm
11:02 20.5 °C 13.9 °C 1019.9 hPa WSW 1.6 km/h 6.4 km/h 66 % 0.0 mm
11:07 20.5 °C 14.4 °C 1019.9 hPa SSW 3.2 km/h 6.4 km/h 68 % 0.0 mm
11:12 20.9 °C 14.3 °C 1019.9 hPa Calm   6.4 km/h 66 % 0.0 mm
11:17 20.8 °C 14.0 °C 1019.9 hPa SW 4.8 km/h 11.3 km/h 65 % 0.0 mm
11:22 20.8 °C 14.0 °C 1019.9 hPa WSW 3.2 km/h 11.3 km/h 65 % 0.0 mm
11:27 21.1 °C 14.3 °C 1019.9 hPa SW 6.4 km/h 12.9 km/h 65 % 0.0 mm
11:32 21.3 °C 14.5 °C 1019.9 hPa WNW 1.6 km/h 12.9 km/h 65 % 0.0 mm
11:37 21.5 °C 14.4 °C 1019.9 hPa WSW 8.0 km/h 11.3 km/h 64 % 0.0 mm
11:42 21.5 °C 14.4 °C 1019.9 hPa West 6.4 km/h 11.3 km/h 64 % 0.0 mm
11:47 21.6 °C 14.3 °C 1019.9 hPa West 4.8 km/h 12.9 km/h 63 % 0.0 mm
11:52 21.7 °C 14.3 °C 1019.9 hPa WSW 3.2 km/h 12.9 km/h 63 % 0.0 mm
11:57 21.9 °C 14.8 °C 1019.9 hPa WNW 4.8 km/h 12.9 km/h 64 % 0.0 mm
12:02 22.0 °C 14.1 °C 1019.9 hPa NW 4.8 km/h 12.9 km/h 61 % 0.0 mm
12:07 22.1 °C 14.5 °C 1019.9 hPa NNW 3.2 km/h 22.5 km/h 62 % 0.0 mm
12:12 22.4 °C 14.3 °C 1019.9 hPa NW 6.4 km/h 22.5 km/h 60 % 0.0 mm
12:17 22.3 °C 13.9 °C 1019.9 hPa West 8.0 km/h 16.1 km/h 59 % 0.0 mm
12:22 22.3 °C 14.4 °C 1019.9 hPa WNW 3.2 km/h 14.5 km/h 61 % 0.0 mm
12:27 22.5 °C 14.3 °C 1019.9 hPa NW 1.6 km/h 14.5 km/h 60 % 0.0 mm
12:32 22.8 °C 14.4 °C 1019.9 hPa WNW 4.8 km/h 14.5 km/h 59 % 0.0 mm
12:37 22.7 °C 14.0 °C 1019.5 hPa West 11.3 km/h 14.5 km/h 58 % 0.0 mm
12:42 22.7 °C 14.0 °C 1019.5 hPa SSW 3.2 km/h 12.9 km/h 58 % 0.0 mm
12:47 22.8 °C 13.8 °C 1019.5 hPa West 4.8 km/h 12.9 km/h 57 % 0.0 mm
12:52 23.1 °C 14.1 °C 1019.5 hPa SSW 6.4 km/h 12.9 km/h 57 % 0.0 mm
12:57 23.4 °C 14.4 °C 1019.5 hPa WSW 4.8 km/h 12.9 km/h 57 % 0.0 mm
13:02 23.4 °C 14.4 °C 1019.5 hPa SSW 6.4 km/h 12.9 km/h 57 % 0.0 mm
13:07 23.3 °C 14.3 °C 1019.5 hPa WSW 4.8 km/h 16.1 km/h 57 % 0.0 mm
13:12 23.5 °C 14.2 °C 1019.5 hPa SW 9.7 km/h 16.1 km/h 56 % 0.0 mm
13:17 23.4 °C 13.8 °C 1019.5 hPa WSW 6.4 km/h 16.1 km/h 55 % 0.0 mm
13:22 23.7 °C 13.8 °C 1019.5 hPa WNW 1.6 km/h 16.1 km/h 54 % 0.0 mm
13:27 24.1 °C 13.9 °C 1019.5 hPa WSW 3.2 km/h 16.1 km/h 53 % 0.0 mm
13:32 24.1 °C 13.3 °C 1019.5 hPa SW 4.8 km/h 16.1 km/h 51 % 0.0 mm
13:37 24.2 °C 14.0 °C 1019.5 hPa WSW 6.4 km/h 11.3 km/h 53 % 0.0 mm
13:42 23.8 °C 13.9 °C 1019.5 hPa WSW 8.0 km/h 11.3 km/h 54 % 0.0 mm
13:47 23.8 °C 13.9 °C 1019.5 hPa South 3.2 km/h 14.5 km/h 54 % 0.0 mm
13:52 24.1 °C 13.6 °C 1019.2 hPa West 6.4 km/h 14.5 km/h 52 % 0.0 mm
13:57 24.1 °C 14.2 °C 1019.2 hPa WSW 3.2 km/h 12.9 km/h 54 % 0.0 mm
14:02 24.1 °C 13.9 °C 1019.2 hPa Calm   12.9 km/h 53 % 0.0 mm
14:12 24.2 °C 13.7 °C 1019.2 hPa Calm   12.9 km/h 52 % 0.0 mm
14:17 24.2 °C 13.4 °C 1019.2 hPa WNW 1.6 km/h 12.9 km/h 51 % 0.0 mm
14:22 24.1 °C 13.9 °C 1019.2 hPa West 6.4 km/h 12.9 km/h 53 % 0.0 mm
14:27 24.1 °C 13.9 °C 1019.2 hPa WNW 3.2 km/h 11.3 km/h 53 % 0.0 mm
14:32 24.4 °C 13.9 °C 1018.8 hPa West 9.7 km/h 11.3 km/h 52 % 0.0 mm
14:37 24.4 °C 13.9 °C 1018.8 hPa NW 1.6 km/h 14.5 km/h 52 % 0.0 mm
14:42 24.5 °C 14.0 °C 1018.8 hPa WNW 12.9 km/h 14.5 km/h 52 % 0.0 mm
14:47 24.3 °C 14.1 °C 1018.8 hPa SSW 9.7 km/h 14.5 km/h 53 % 0.0 mm
14:52 24.7 °C 14.2 °C 1018.8 hPa West 6.4 km/h 14.5 km/h 52 % 0.0 mm
14:57 24.7 °C 13.6 °C 1018.8 hPa SW 1.6 km/h 16.1 km/h 50 % 0.0 mm
15:02 24.4 °C 13.3 °C 1018.8 hPa SW 9.7 km/h 16.1 km/h 50 % 0.0 mm
15:07 24.5 °C 13.4 °C 1018.8 hPa South 6.4 km/h 17.7 km/h 50 % 0.0 mm
15:12 24.9 °C 13.8 °C 1018.8 hPa SW 1.6 km/h 17.7 km/h 50 % 0.0 mm
15:17 24.8 °C 13.7 °C 1018.8 hPa West 3.2 km/h 19.3 km/h 50 % 0.0 mm
15:22 24.8 °C 13.7 °C 1018.8 hPa West 9.7 km/h 19.3 km/h 50 % 0.0 mm
15:32 24.7 °C 13.3 °C 1018.8 hPa SW 4.8 km/h 22.5 km/h 49 % 0.0 mm
15:37 25.2 °C 14.3 °C 1018.8 hPa WSW 4.8 km/h 20.9 km/h 51 % 0.0 mm
15:42 24.9 °C 13.5 °C 1018.8 hPa West 4.8 km/h 20.9 km/h 49 % 0.0 mm
15:47 24.8 °C 13.7 °C 1018.8 hPa Calm   22.5 km/h 50 % 0.0 mm
15:57 25.0 °C 13.9 °C 1018.8 hPa West 9.7 km/h 22.5 km/h 50 % 0.0 mm
16:02 24.9 °C 13.5 °C 1018.8 hPa West 4.8 km/h 22.5 km/h 49 % 0.0 mm
16:12 25.3 °C 14.1 °C 1018.5 hPa SSW 3.2 km/h 14.5 km/h 50 % 0.0 mm
16:22 25.0 °C 14.2 °C 1018.5 hPa West 6.4 km/h 17.7 km/h 51 % 0.0 mm
16:32 24.9 °C 14.1 °C 1018.5 hPa WNW 11.3 km/h 17.7 km/h 51 % 0.0 mm
16:37 24.8 °C 14.0 °C 1018.5 hPa WNW 4.8 km/h 22.5 km/h 51 % 0.0 mm
16:42 25.0 °C 14.5 °C 1018.5 hPa NNW 4.8 km/h 22.5 km/h 52 % 0.0 mm
16:47 25.3 °C 14.1 °C 1018.5 hPa West 4.8 km/h 17.7 km/h 50 % 0.0 mm
16:52 25.3 °C 13.8 °C 1018.5 hPa WNW 11.3 km/h 17.7 km/h 49 % 0.0 mm
16:57 25.2 °C 14.0 °C 1018.5 hPa West 4.8 km/h 19.3 km/h 50 % 0.0 mm
17:02 25.2 °C 13.7 °C 1018.5 hPa NNW 6.4 km/h 19.3 km/h 49 % 0.0 mm
17:07 24.9 °C 13.5 °C 1018.5 hPa WNW 9.7 km/h 19.3 km/h 49 % 0.0 mm
17:12 25.0 °C 13.9 °C 1018.5 hPa WNW 8.0 km/h 19.3 km/h 50 % 0.0 mm
17:17 25.1 °C 13.9 °C 1018.5 hPa West 3.2 km/h 17.7 km/h 50 % 0.0 mm
17:22 25.1 °C 13.9 °C 1018.5 hPa WNW 8.0 km/h 17.7 km/h 50 % 0.0 mm
17:27 25.1 °C 13.9 °C 1018.5 hPa West 8.0 km/h 22.5 km/h 50 % 0.0 mm
17:32 24.8 °C 14.0 °C 1018.5 hPa NW 6.4 km/h 22.5 km/h 51 % 0.0 mm
17:37 25.0 °C 14.2 °C 1018.5 hPa NW 9.7 km/h 22.5 km/h 51 % 0.0 mm
17:42 25.1 °C 14.3 °C 1018.5 hPa West 4.8 km/h 22.5 km/h 51 % 0.0 mm
17:47 24.9 °C 14.1 °C 1018.2 hPa WNW 16.1 km/h 19.3 km/h 51 % 0.0 mm
17:52 25.1 °C 13.9 °C 1018.5 hPa WSW 4.8 km/h 19.3 km/h 50 % 0.0 mm
17:57 25.0 °C 14.2 °C 1018.2 hPa NW 6.4 km/h 20.9 km/h 51 % 0.0 mm
18:02 24.8 °C 13.7 °C 1018.2 hPa WNW 9.7 km/h 20.9 km/h 50 % 0.0 mm
18:07 24.7 °C 13.9 °C 1018.2 hPa WNW 12.9 km/h 16.1 km/h 51 % 0.0 mm
18:12 24.7 °C 13.9 °C 1018.2 hPa WNW 12.9 km/h 16.1 km/h 51 % 0.0 mm
18:17 24.7 °C 14.2 °C 1018.2 hPa West 11.3 km/h 19.3 km/h 52 % 0.0 mm
18:22 24.6 °C 14.1 °C 1018.2 hPa West 14.5 km/h 19.3 km/h 52 % 0.0 mm
18:27 24.6 °C 14.4 °C 1018.2 hPa West 9.7 km/h 19.3 km/h 53 % 0.0 mm
18:32 24.7 °C 14.2 °C 1018.2 hPa West 8.0 km/h 19.3 km/h 52 % 0.0 mm
18:37 24.8 °C 14.0 °C 1018.2 hPa WSW 6.4 km/h 19.3 km/h 51 % 0.0 mm
18:42 24.7 °C 13.9 °C 1018.2 hPa WNW 8.0 km/h 17.7 km/h 51 % 0.0 mm
18:52 24.7 °C 14.2 °C 1018.2 hPa WNW 8.0 km/h 17.7 km/h 52 % 0.0 mm
19:02 24.2 °C 14.3 °C 1018.2 hPa WNW 4.8 km/h 17.7 km/h 54 % 0.0 mm
19:07 24.4 °C 14.2 °C 1018.2 hPa WNW 4.8 km/h 17.7 km/h 53 % 0.0 mm
19:12 24.1 °C 14.5 °C 1018.2 hPa West 3.2 km/h 17.7 km/h 55 % 0.0 mm
19:17 24.3 °C 14.4 °C 1018.2 hPa NW 8.0 km/h 17.7 km/h 54 % 0.0 mm
19:22 24.3 °C 14.1 °C 1018.2 hPa West 8.0 km/h 17.7 km/h 53 % 0.0 mm
19:27 24.4 °C 14.2 °C 1018.2 hPa NW 3.2 km/h 19.3 km/h 53 % 0.0 mm
19:32 24.4 °C 13.9 °C 1018.2 hPa WNW 9.7 km/h 19.3 km/h 52 % 0.0 mm
19:37 24.3 °C 14.1 °C 1018.2 hPa West 9.7 km/h 16.1 km/h 53 % 0.0 mm
19:42 24.2 °C 14.0 °C 1018.2 hPa WNW 11.3 km/h 16.1 km/h 53 % 0.0 mm
19:52 24.1 °C 14.2 °C 1018.2 hPa WNW 8.0 km/h 12.9 km/h 54 % 0.0 mm
19:57 23.9 °C 14.0 °C 1018.2 hPa WNW 4.8 km/h 14.5 km/h 54 % 0.0 mm
20:02 24.0 °C 14.1 °C 1018.5 hPa NNW 6.4 km/h 14.5 km/h 54 % 0.0 mm
20:12 23.9 °C 14.0 °C 1018.2 hPa West 3.2 km/h 11.3 km/h 54 % 0.0 mm
20:17 23.9 °C 14.3 °C 1018.5 hPa WNW 8.0 km/h 9.7 km/h 55 % 0.0 mm
20:22 23.8 °C 13.9 °C 1018.5 hPa West 8.0 km/h 9.7 km/h 54 % 0.0 mm
20:27 23.7 °C 14.1 °C 1018.5 hPa WNW 8.0 km/h 11.3 km/h 55 % 0.0 mm
20:32 23.7 °C 14.1 °C 1018.5 hPa NW 1.6 km/h 11.3 km/h 55 % 0.0 mm
20:37 23.6 °C 14.0 °C 1018.5 hPa WNW 1.6 km/h 9.7 km/h 55 % 0.0 mm
20:42 23.6 °C 14.3 °C 1018.5 hPa WNW 3.2 km/h 9.7 km/h 56 % 0.0 mm
20:47 23.5 °C 14.2 °C 1018.5 hPa WNW 3.2 km/h 9.7 km/h 56 % 0.0 mm
20:52 23.4 °C 14.1 °C 1018.2 hPa WNW 1.6 km/h 9.7 km/h 56 % 0.0 mm
20:57 23.3 °C 14.3 °C 1018.2 hPa WNW 1.6 km/h 6.4 km/h 57 % 0.0 mm
21:02 23.1 °C 14.1 °C 1018.5 hPa West 1.6 km/h 6.4 km/h 57 % 0.0 mm
21:07 22.8 °C 14.1 °C 1018.2 hPa WNW 3.2 km/h 6.4 km/h 58 % 0.0 mm
21:12 22.6 °C 14.2 °C 1018.2 hPa Calm   6.4 km/h 59 % 0.0 mm
21:17 22.3 °C 14.2 °C 1018.2 hPa NW 1.6 km/h 6.4 km/h 60 % 0.0 mm
21:22 22.1 °C 14.0 °C 1018.2 hPa Calm   6.4 km/h 60 % 0.0 mm
21:27 21.9 °C 14.0 °C 1018.2 hPa WNW 3.2 km/h 6.4 km/h 61 % 0.0 mm
21:32 21.7 °C 14.1 °C 1018.2 hPa WNW 1.6 km/h 6.4 km/h 62 % 0.0 mm
21:37 21.4 °C 14.1 °C 1018.5 hPa Calm   3.2 km/h 63 % 0.0 mm
21:42 21.3 °C 14.2 °C 1018.2 hPa Calm   3.2 km/h 64 % 0.0 mm
21:52 21.1 °C 14.0 °C 1018.5 hPa Calm   3.2 km/h 64 % 0.0 mm
21:57 21.0 °C 14.2 °C 1018.5 hPa Calm     65 % 0.0 mm
22:02 20.7 °C 13.9 °C 1018.5 hPa Calm     65 % 0.0 mm
22:07 20.5 °C 13.9 °C 1018.5 hPa Calm     66 % 0.0 mm
22:12 20.3 °C 14.0 °C 1018.5 hPa Calm     67 % 0.0 mm
22:17 20.1 °C 14.0 °C 1018.5 hPa Calm     68 % 0.0 mm
22:22 19.9 °C 14.0 °C 1018.5 hPa Calm     69 % 0.0 mm
22:27 19.7 °C 13.6 °C 1018.5 hPa Calm     68 % 0.0 mm
22:32 19.4 °C 13.6 °C 1018.5 hPa Calm     69 % 0.0 mm
22:37 19.3 °C 13.5 °C 1018.5 hPa Calm     69 % 0.0 mm
22:42 19.2 °C 13.8 °C 1018.8 hPa Calm     71 % 0.0 mm
22:47 19.1 °C 13.9 °C 1018.8 hPa Calm     72 % 0.0 mm
22:52 18.9 °C 13.7 °C 1018.8 hPa Calm     72 % 0.0 mm
22:57 18.7 °C 13.8 °C 1018.8 hPa Calm     73 % 0.0 mm
23:02 18.4 °C 13.5 °C 1018.8 hPa Calm     73 % 0.0 mm
23:07 18.3 °C 13.8 °C 1018.8 hPa Calm     75 % 0.0 mm
23:12 18.1 °C 13.6 °C 1018.8 hPa Calm     75 % 0.0 mm
23:17 17.9 °C 13.8 °C 1018.8 hPa Calm     77 % 0.0 mm
23:22 17.8 °C 13.7 °C 1018.8 hPa Calm     77 % 0.0 mm
23:27 17.7 °C 13.8 °C 1018.8 hPa Calm     78 % 0.0 mm
23:32 17.6 °C 13.7 °C 1018.8 hPa Calm     78 % 0.0 mm
23:37 17.4 °C 13.5 °C 1018.8 hPa Calm     78 % 0.0 mm
23:42 17.4 °C 13.7 °C 1018.8 hPa Calm     79 % 0.0 mm
23:47 17.3 °C 13.8 °C 1018.8 hPa Calm     80 % 0.0 mm
23:52 17.2 °C 13.7 °C 1018.8 hPa Calm     80 % 0.0 mm
23:57 17.1 °C 13.6 °C 1018.8 hPa Calm     80 % 0.0 mm
Meteo18
Compliments of Weather Underground - 4 mb

Script developed by  Jim McMurry - jmcmurry@mwt.net Adapted for the template by  Wim van der Kuil - Leuven-Template.eu

You find our weather info also at:

European Weather Network

Weather Underground

Equipment we use:

Weather-station
Davis Vue

Weather-program
Meteohub

Weather-server
Raspberry PI 2 B+

Provider
1 and 1

Davis Vue

Meteohub

Raspberry PI 2 B+

1 and 1